Conway, Massachusetts
Current Conditions -  °F | °C
As of 6:08 AM on Saturday 25 Oct 2014 (Local Time) from KORE Reporting Station
Haze Haze  
Wind Chill: 34°   Ceiling: 200
Heat Index: 34°   Visibility: 1.2mi
Dew Point: 33°   Wind: 0mph
Humidity: 96%   Direction: NA
Pressure: 29.79"   Gusts: NA
Location:  42.51°N, 72.7°W
Report Text: KORE 251008Z AUTO 00000KT 1 1/4SM BR BKN002 01/01 A2979 RMK AO2 T00110006
Loading
Personal Weather Stations






























Interactive Weather Map
Tropical Storm Tracking
New forecast layout! Learn more

10-Day Weather Forecast

Advertisements
Track Severe Weather on mobile